Terminal Aerodrome Forecast
Issued by NWS Cleveland, OH

Home | Current Version | Previous Version | Graphics & Text | Print | Product List | Glossary On
Versions: 1 2 3 4 5 6 7 8 9 10 11 12 13 14 15 16
171
FTUS41 KCLE 191730
TAFTOL
TAF
KTOL 191730Z 1918/2018 24007KT P6SM SCT035
     FM192100 27006KT P6SM VCTS SCT035CB
     FM200000 28005KT P6SM SCT120 BKN250
     FM200800 00000KT 5SM BR SCT040 BKN120
      TEMPO 2010/2013 2SM BR
     FM201400 24007KT 6SM HZ BKN040=

USA.gov is the U.S. government's official web portal to all federal, state and local government web resources and services.